createdAt,value
2018-12-08T00:00:42.295Z,50.10
2018-12-08T00:03:11.153Z,50.20
2018-12-08T00:05:39.471Z,50.40
2018-12-08T00:08:07.839Z,50.50
2018-12-08T00:10:36.225Z,50.70
2018-12-08T00:13:05.121Z,50.90
2018-12-08T00:15:33.761Z,51.10
2018-12-08T00:18:02.093Z,51.20
2018-12-08T00:20:30.501Z,51.40
2018-12-08T00:22:58.895Z,51.40
2018-12-08T00:25:27.273Z,51.50
2018-12-08T00:27:55.705Z,51.70
2018-12-08T00:33:25.137Z,51.80
2018-12-08T00:35:53.782Z,52.00
2018-12-08T00:38:22.167Z,52.00
2018-12-08T00:40:50.592Z,52.10
2018-12-08T00:43:19.009Z,52.00
2018-12-08T00:45:47.661Z,52.10
2018-12-08T00:48:16.099Z,52.00
2018-12-08T00:50:44.516Z,52.30
2018-12-08T00:53:13.155Z,52.30
2018-12-08T00:55:41.901Z,52.40
2018-12-08T00:58:10.273Z,52.40
2018-12-08T01:00:38.700Z,52.40
2018-12-08T01:03:07.086Z,52.40
2018-12-08T01:05:35.459Z,52.60
2018-12-08T01:08:04.118Z,52.40
2018-12-08T01:10:32.802Z,52.60
2018-12-08T01:13:01.265Z,52.60
2018-12-08T01:15:29.631Z,52.60
2018-12-08T01:17:58.279Z,52.60
2018-12-08T01:20:26.740Z,52.70
2018-12-08T01:22:55.201Z,52.70
2018-12-08T01:25:24.807Z,52.70
2018-12-08T01:27:53.455Z,52.70
2018-12-08T01:30:21.794Z,52.70
2018-12-08T01:32:50.263Z,52.70
2018-12-08T01:35:19.121Z,52.70
2018-12-08T01:37:47.709Z,52.70
2018-12-08T01:40:16.097Z,52.70
2018-12-08T01:42:46.506Z,52.70
2018-12-08T01:45:14.878Z,52.70
2018-12-08T01:47:43.254Z,52.70
2018-12-08T01:50:11.642Z,52.70
2018-12-08T01:52:40.050Z,52.70
2018-12-08T01:55:08.478Z,52.70
2018-12-08T01:57:37.207Z,52.70
2018-12-08T02:00:06.784Z,52.60
2018-12-08T02:02:35.447Z,52.60
2018-12-08T02:05:04.522Z,52.60
2018-12-08T02:07:32.967Z,52.60
2018-12-08T02:10:01.221Z,52.60
2018-12-08T02:12:29.619Z,52.60
2018-12-08T02:14:58.055Z,52.60
2018-12-08T02:17:26.513Z,52.60
2018-12-08T02:19:55.146Z,52.60
2018-12-08T02:22:23.556Z,52.60
2018-12-08T02:24:51.986Z,52.60
2018-12-08T02:27:20.409Z,52.60
2018-12-08T02:29:48.790Z,52.40
2018-12-08T02:32:17.185Z,52.60
2018-12-08T02:34:45.642Z,52.40
2018-12-08T02:37:14.058Z,52.40
2018-12-08T02:39:42.498Z,52.60
2018-12-08T02:42:10.940Z,52.40
2018-12-08T02:44:39.253Z,52.60
2018-12-08T02:47:07.621Z,52.60
2018-12-08T02:49:36.030Z,52.40
2018-12-08T02:52:04.682Z,52.60
2018-12-08T02:54:33.222Z,52.60
2018-12-08T02:57:01.651Z,52.60
2018-12-08T02:59:30.017Z,52.60
2018-12-08T03:01:58.395Z,52.60
2018-12-08T03:04:27.703Z,52.60
2018-12-08T03:06:56.097Z,52.40
2018-12-08T03:09:24.489Z,52.40
2018-12-08T03:11:52.893Z,52.40
2018-12-08T03:14:21.295Z,52.40
2018-12-08T03:16:49.653Z,52.40
2018-12-08T03:19:17.949Z,52.40
2018-12-08T03:21:46.477Z,52.40
2018-12-08T03:24:15.116Z,52.40
2018-12-08T03:26:43.433Z,52.40
2018-12-08T03:29:12.095Z,52.30
2018-12-08T03:31:40.806Z,52.30
2018-12-08T03:34:09.301Z,52.30
2018-12-08T03:36:37.758Z,52.30
2018-12-08T03:39:07.374Z,52.10
2018-12-08T03:41:36.015Z,52.10
2018-12-08T03:44:04.448Z,52.10
2018-12-08T03:46:32.941Z,52.10
2018-12-08T03:49:01.526Z,52.10
2018-12-08T03:51:29.937Z,52.00
2018-12-08T03:53:58.605Z,52.00
2018-12-08T03:56:26.986Z,52.00
2018-12-08T03:58:55.358Z,52.00
2018-12-08T04:01:23.808Z,52.00
2018-12-08T04:03:52.206Z,52.00
2018-12-08T04:06:20.815Z,52.00
2018-12-08T04:08:49.264Z,51.80
2018-12-08T04:11:17.685Z,51.80
2018-12-08T04:13:46.067Z,51.80
2018-12-08T04:16:14.517Z,51.80
2018-12-08T04:18:42.951Z,51.80
2018-12-08T04:21:11.676Z,51.80
2018-12-08T04:23:40.306Z,51.80
2018-12-08T04:26:08.683Z,51.70
2018-12-08T04:28:37.089Z,51.70
2018-12-08T04:31:05.515Z,51.70
2018-12-08T04:33:34.122Z,51.70
2018-12-08T04:36:02.522Z,51.70
2018-12-08T04:38:31.167Z,51.70
2018-12-08T04:40:59.819Z,51.70
2018-12-08T04:43:28.197Z,51.70
2018-12-08T04:45:56.587Z,51.50
2018-12-08T04:48:24.978Z,51.50
2018-12-08T04:50:53.269Z,51.50
2018-12-08T04:53:21.890Z,51.40
2018-12-08T04:55:50.547Z,51.40
2018-12-08T04:58:19.029Z,51.40
2018-12-08T05:00:47.416Z,51.40
2018-12-08T05:03:15.828Z,51.20
2018-12-08T05:05:44.262Z,51.20
2018-12-08T05:08:12.633Z,51.20
2018-12-08T05:10:41.135Z,51.20
2018-12-08T05:13:09.760Z,51.10
2018-12-08T05:15:38.203Z,51.10
2018-12-08T05:18:06.498Z,50.90
2018-12-08T05:20:34.974Z,50.80
2018-12-08T05:23:03.592Z,50.90
2018-12-08T05:25:32.252Z,50.80
2018-12-08T05:28:00.660Z,50.70
2018-12-08T05:30:29.031Z,50.80
2018-12-08T05:32:57.433Z,50.80
2018-12-08T05:35:25.837Z,50.70
2018-12-08T05:37:54.177Z,50.70
2018-12-08T05:40:22.582Z,50.80
2018-12-08T05:42:51.247Z,50.80
2018-12-08T05:45:19.646Z,50.70
2018-12-08T05:47:48.280Z,50.70
2018-12-08T05:50:16.643Z,50.70
2018-12-08T05:52:44.997Z,50.70
2018-12-08T05:55:13.397Z,50.70
2018-12-08T05:57:41.755Z,50.70
2018-12-08T06:00:10.200Z,50.70
2018-12-08T06:02:38.584Z,50.70
2018-12-08T06:05:07.050Z,50.70
2018-12-08T06:07:35.501Z,50.50
2018-12-08T06:10:05.221Z,50.40
2018-12-08T06:12:33.699Z,50.40
2018-12-08T06:15:02.089Z,50.20
2018-12-08T06:17:30.493Z,50.10
2018-12-08T06:19:58.911Z,50.10
2018-12-08T06:22:28.268Z,50.10
2018-12-08T06:24:56.649Z,50.10
2018-12-08T06:27:25.079Z,50.10
2018-12-08T06:29:53.490Z,50.20
2018-12-08T06:32:21.928Z,50.20
2018-12-08T06:34:50.470Z,50.20
2018-12-08T06:37:18.753Z,50.20
2018-12-08T06:39:47.167Z,50.20
2018-12-08T06:42:15.601Z,50.20
2018-12-08T06:44:43.965Z,50.10
2018-12-08T06:47:12.415Z,49.90
2018-12-08T06:49:42.979Z,49.90
2018-12-08T06:52:11.613Z,49.90
2018-12-08T06:54:40.056Z,49.90
2018-12-08T06:57:08.425Z,49.90
2018-12-08T06:59:36.869Z,49.90
2018-12-08T07:02:05.455Z,49.90
2018-12-08T07:04:34.361Z,49.80
2018-12-08T07:07:02.788Z,49.90
2018-12-08T07:09:31.246Z,49.90
2018-12-08T07:12:00.010Z,49.80
2018-12-08T07:14:28.410Z,49.90
2018-12-08T07:16:57.065Z,49.80
2018-12-08T07:19:25.535Z,49.80
2018-12-08T07:21:53.914Z,49.80
2018-12-08T07:24:22.298Z,49.80
2018-12-08T07:26:50.829Z,49.50
2018-12-08T07:29:19.291Z,49.50
2018-12-08T07:31:47.707Z,49.20
2018-12-08T07:34:16.109Z,48.90
2018-12-08T07:36:44.528Z,49.00
2018-12-08T07:39:12.868Z,49.00
2018-12-08T07:41:41.492Z,48.90
2018-12-08T07:44:10.941Z,48.70
2018-12-08T07:46:39.659Z,48.60
2018-12-08T07:49:08.110Z,48.40
2018-12-08T07:51:36.578Z,48.00
2018-12-08T07:54:05.607Z,47.80
2018-12-08T07:56:34.158Z,48.00
2018-12-08T07:59:03.187Z,48.00
2018-12-08T08:01:31.940Z,48.10
2018-12-08T08:04:00.676Z,48.10
2018-12-08T08:06:29.167Z,48.10
2018-12-08T08:08:57.981Z,48.10
2018-12-08T08:11:26.647Z,48.00
2018-12-08T08:13:55.195Z,47.80
2018-12-08T08:16:23.855Z,47.70
2018-12-08T08:18:52.761Z,47.50
2018-12-08T08:21:21.571Z,47.40
2018-12-08T08:23:50.168Z,47.30
2018-12-08T08:26:18.753Z,47.00
2018-12-08T08:28:47.376Z,46.80
2018-12-08T08:31:16.008Z,46.50
2018-12-08T08:33:44.721Z,46.70
2018-12-08T08:36:13.770Z,46.80
2018-12-08T08:38:42.572Z,47.00
2018-12-08T08:41:11.406Z,47.00
2018-12-08T08:43:39.862Z,47.00
2018-12-08T08:46:08.357Z,47.00
2018-12-08T08:48:38.353Z,46.80
2018-12-08T08:51:08.109Z,46.80
2018-12-08T08:53:38.654Z,46.70
2018-12-08T08:56:07.530Z,46.70
2018-12-08T08:58:36.095Z,46.70
2018-12-08T09:01:04.714Z,46.70
2018-12-08T09:03:33.979Z,46.50
2018-12-08T09:06:03.336Z,45.80
2018-12-08T09:08:32.057Z,44.40
2018-12-08T09:11:01.007Z,48.40
2018-12-08T09:13:29.514Z,47.30
2018-12-08T09:15:57.854Z,47.10
2018-12-08T09:18:26.247Z,46.40
2018-12-08T09:20:54.751Z,46.20
2018-12-08T09:23:23.719Z,45.90
2018-12-08T09:25:52.820Z,46.10
2018-12-08T09:28:21.907Z,46.20
2018-12-08T09:30:50.677Z,46.10
2018-12-08T09:33:19.219Z,46.20
2018-12-08T09:35:48.042Z,45.60
2018-12-08T09:38:16.570Z,45.50
2018-12-08T09:40:45.023Z,45.50
2018-12-08T09:43:13.549Z,45.50
2018-12-08T09:45:42.392Z,45.50
2018-12-08T09:48:11.355Z,45.00
2018-12-08T09:50:39.971Z,44.70
2018-12-08T09:53:15.671Z,44.70
2018-12-08T09:55:44.320Z,44.70
2018-12-08T09:58:13.074Z,44.90
2018-12-08T10:00:41.837Z,45.00
2018-12-08T10:03:10.491Z,44.90
2018-12-08T10:05:38.918Z,43.70
2018-12-08T10:08:07.368Z,43.10
2018-12-08T10:10:35.984Z,42.40
2018-12-08T10:13:04.391Z,41.80
2018-12-08T10:15:32.912Z,41.80
2018-12-08T10:18:01.316Z,41.50
2018-12-08T10:20:29.735Z,41.60
2018-12-08T10:23:01.088Z,41.50
2018-12-08T10:25:30.517Z,41.50
2018-12-08T10:27:58.977Z,41.60
2018-12-08T10:30:27.534Z,41.90
2018-12-08T10:32:56.243Z,42.10
2018-12-08T10:35:24.587Z,42.10
2018-12-08T10:37:53.032Z,41.90
2018-12-08T10:40:21.458Z,42.50
2018-12-08T10:42:49.830Z,42.70
2018-12-08T10:45:18.537Z,42.80
2018-12-08T10:47:46.994Z,43.00
2018-12-08T10:50:15.381Z,43.10
2018-12-08T10:52:43.870Z,43.30
2018-12-08T10:55:12.671Z,43.10
2018-12-08T10:57:41.359Z,43.10
2018-12-08T11:00:12.015Z,43.10
2018-12-08T11:02:40.469Z,43.10
2018-12-08T11:05:08.945Z,43.40
2018-12-08T11:07:37.374Z,43.70
2018-12-08T11:10:06.327Z,43.40
2018-12-08T11:12:35.039Z,43.70
2018-12-08T11:15:04.079Z,45.50
2018-12-08T11:17:32.449Z,47.40
2018-12-08T11:20:00.847Z,46.70
2018-12-08T11:22:29.299Z,45.60
2018-12-08T11:24:57.665Z,45.50
2018-12-08T11:27:26.397Z,45.50
2018-12-08T11:29:54.699Z,45.60
2018-12-08T11:32:23.098Z,45.50
2018-12-08T11:34:51.401Z,45.50
2018-12-08T11:37:20.010Z,45.30
2018-12-08T11:39:48.802Z,58.80
2018-12-08T11:42:17.195Z,57.70
2018-12-08T11:44:45.983Z,55.50
2018-12-08T11:47:14.471Z,54.90
2018-12-08T11:49:43.784Z,44.00
2018-12-08T11:52:12.243Z,44.60
2018-12-08T11:54:40.661Z,46.20
2018-12-08T11:57:10.331Z,47.40
2018-12-08T11:59:38.965Z,43.70
2018-12-08T12:02:07.372Z,42.50
2018-12-08T12:04:36.072Z,41.20
2018-12-08T12:07:04.491Z,40.50
2018-12-08T12:09:33.006Z,48.30
2018-12-08T12:12:01.382Z,46.70
2018-12-08T12:14:43.000Z,48.10
2018-12-08T12:17:11.475Z,47.70
2018-12-08T12:19:39.867Z,48.90
2018-12-08T12:22:08.394Z,48.40
2018-12-08T12:24:36.864Z,44.90
2018-12-08T12:27:05.386Z,43.60
2018-12-08T12:29:33.923Z,42.40
2018-12-08T12:32:02.474Z,44.40
2018-12-08T12:34:31.258Z,43.00
2018-12-08T12:36:59.717Z,43.10
2018-12-08T12:39:28.464Z,42.70
2018-12-08T12:41:56.890Z,42.50
2018-12-08T12:44:25.632Z,42.50
2018-12-08T12:46:54.063Z,44.00
2018-12-08T12:49:22.430Z,44.40
2018-12-08T12:51:50.865Z,44.90
2018-12-08T12:54:19.613Z,44.60
2018-12-08T12:56:48.118Z,44.60
2018-12-08T12:59:16.586Z,44.60
2018-12-08T13:01:45.176Z,44.60
2018-12-08T13:04:13.723Z,44.90
2018-12-08T13:06:42.340Z,44.90
2018-12-08T13:09:10.749Z,44.90
2018-12-08T13:11:39.758Z,45.30
2018-12-08T13:14:08.168Z,47.70
2018-12-08T13:16:36.568Z,46.20
2018-12-08T13:19:05.246Z,45.90
2018-12-08T13:21:33.931Z,46.20
2018-12-08T13:24:02.370Z,45.80
2018-12-08T13:26:30.773Z,46.10
2018-12-08T13:28:59.295Z,46.40
2018-12-08T13:31:27.703Z,46.50
2018-12-08T13:33:56.085Z,46.70
2018-12-08T13:36:24.918Z,46.70
2018-12-08T13:38:53.723Z,46.50
2018-12-08T13:41:22.144Z,46.40
2018-12-08T13:43:52.412Z,46.70
2018-12-08T13:46:20.792Z,47.00
2018-12-08T13:48:49.226Z,46.80
2018-12-08T13:51:18.159Z,47.30
2018-12-08T13:53:46.840Z,47.10
2018-12-08T13:56:15.220Z,47.50
2018-12-08T13:58:43.910Z,48.30
2018-12-08T14:01:12.273Z,49.30
2018-12-08T14:03:40.667Z,51.10
2018-12-08T14:06:09.194Z,51.40
2018-12-08T14:08:37.547Z,52.00
2018-12-08T14:11:05.987Z,52.30
2018-12-08T14:13:34.792Z,52.90
2018-12-08T14:16:03.494Z,54.10
2018-12-08T14:18:32.164Z,54.20
2018-12-08T14:21:00.534Z,54.20
2018-12-08T14:23:29.235Z,54.60
2018-12-08T14:25:57.906Z,55.10
2018-12-08T14:28:26.474Z,55.20
2018-12-08T14:30:54.894Z,57.00
2018-12-08T14:33:23.529Z,56.00
2018-12-08T14:35:52.023Z,57.40
2018-12-08T14:38:20.448Z,57.40
2018-12-08T14:40:48.886Z,59.20
2018-12-08T14:43:17.463Z,57.70
2018-12-08T14:45:45.894Z,57.40
2018-12-08T14:48:14.510Z,58.20
2018-12-08T14:50:42.958Z,56.60
2018-12-08T14:53:13.862Z,56.40
2018-12-08T14:55:44.535Z,56.40
2018-12-08T14:58:12.980Z,56.30
2018-12-08T15:00:41.386Z,56.30
2018-12-08T15:03:10.055Z,59.70
2018-12-08T15:05:39.232Z,58.60
2018-12-08T15:08:08.353Z,57.40
2018-12-08T15:10:37.403Z,57.20
2018-12-08T15:13:06.414Z,56.90
2018-12-08T15:15:35.304Z,57.20
2018-12-08T15:18:03.760Z,57.30
2018-12-08T15:20:32.152Z,63.30
2018-12-08T15:23:00.634Z,60.80
2018-12-08T15:25:29.073Z,58.00
2018-12-08T15:27:58.754Z,61.20
2018-12-08T15:30:27.429Z,58.50
2018-12-08T15:32:55.921Z,60.10
2018-12-08T15:35:24.574Z,58.50
2018-12-08T15:37:53.139Z,62.20
2018-12-08T15:40:21.562Z,59.50
2018-12-08T15:42:50.238Z,61.00
2018-12-08T15:45:18.769Z,62.20
2018-12-08T15:47:47.306Z,58.80
2018-12-08T15:50:16.194Z,65.70
2018-12-08T15:52:44.962Z,59.50
2018-12-08T15:55:15.122Z,57.70
2018-12-08T15:57:43.518Z,56.90
2018-12-08T16:00:13.240Z,56.30
2018-12-08T16:02:41.737Z,70.30
2018-12-08T16:05:10.472Z,60.30
2018-12-08T16:07:39.225Z,58.20
2018-12-08T16:10:09.060Z,61.70
2018-12-08T16:12:37.746Z,59.20
2018-12-08T16:15:06.653Z,56.70
2018-12-08T16:17:35.192Z,57.90
2018-12-08T16:20:06.304Z,56.30
2018-12-08T16:22:35.032Z,56.00
2018-12-08T16:25:04.082Z,54.80
2018-12-08T16:27:32.830Z,64.90
2018-12-08T16:30:03.505Z,60.80
2018-12-08T16:32:32.774Z,56.00
2018-12-08T16:35:01.459Z,58.30
2018-12-08T16:37:30.034Z,57.60
2018-12-08T16:39:58.503Z,57.40
2018-12-08T16:42:27.148Z,54.80
2018-12-08T16:44:55.921Z,55.20
2018-12-08T16:47:24.666Z,53.80
2018-12-08T16:49:54.942Z,53.50
2018-12-08T16:52:30.131Z,54.30
2018-12-08T16:55:00.813Z,53.80
2018-12-08T16:57:29.258Z,53.50
2018-12-08T16:59:57.772Z,55.70
2018-12-08T17:02:26.166Z,55.80
2018-12-08T17:04:54.576Z,55.40
2018-12-08T17:07:23.114Z,53.80
2018-12-08T17:09:52.373Z,53.80
2018-12-08T17:12:20.972Z,54.20
2018-12-08T17:14:49.481Z,55.20
2018-12-08T17:17:17.905Z,54.60
2018-12-08T17:19:46.522Z,55.10
2018-12-08T17:22:15.155Z,53.80
2018-12-08T17:24:43.651Z,61.90
2018-12-08T17:27:12.114Z,60.00
2018-12-08T17:29:40.564Z,55.10
2018-12-08T17:32:09.065Z,54.30
2018-12-08T17:34:37.892Z,53.00
2018-12-08T17:37:06.861Z,52.90
2018-12-08T17:39:35.352Z,57.30
2018-12-08T17:42:04.055Z,55.70
2018-12-08T17:44:32.471Z,56.90
2018-12-08T17:47:00.935Z,55.10
2018-12-08T17:49:29.590Z,53.00
2018-12-08T17:51:58.882Z,52.40
2018-12-08T17:54:27.254Z,52.60
2018-12-08T17:56:55.719Z,52.90
2018-12-08T17:59:24.024Z,53.00
2018-12-08T18:01:53.111Z,53.30
2018-12-08T18:04:21.763Z,53.30
2018-12-08T18:06:50.169Z,53.20
2018-12-08T18:09:18.760Z,53.50
2018-12-08T18:11:47.237Z,53.30
2018-12-08T18:14:15.641Z,54.60
2018-12-08T18:16:44.069Z,54.10
2018-12-08T18:19:12.517Z,56.30
2018-12-08T18:21:41.042Z,55.10
2018-12-08T18:24:09.621Z,54.10
2018-12-08T18:26:38.058Z,53.50
2018-12-08T18:29:06.730Z,54.10
2018-12-08T18:31:35.140Z,53.80
2018-12-08T18:34:03.621Z,53.30
2018-12-08T18:36:32.141Z,59.40
2018-12-08T18:39:00.578Z,57.90
2018-12-08T18:41:29.018Z,57.90
2018-12-08T18:43:57.499Z,56.00
2018-12-08T18:46:26.051Z,54.60
2018-12-08T18:48:54.507Z,54.20
2018-12-08T18:51:22.941Z,53.60
2018-12-08T18:53:51.360Z,53.30
2018-12-08T18:56:19.836Z,53.80
2018-12-08T18:58:48.246Z,53.60
2018-12-08T19:01:16.674Z,53.30
2018-12-08T19:03:45.106Z,53.30
2018-12-08T19:06:13.628Z,53.50
2018-12-08T19:08:42.156Z,53.00
2018-12-08T19:11:10.853Z,54.90
2018-12-08T19:13:39.283Z,54.30
2018-12-08T19:16:07.699Z,53.80
2018-12-08T19:18:36.457Z,53.50
2018-12-08T19:21:05.220Z,56.10
2018-12-08T19:23:34.073Z,55.10
2018-12-08T19:26:02.690Z,56.10
2018-12-08T19:28:31.148Z,66.70
2018-12-08T19:30:59.632Z,66.90
2018-12-08T19:33:28.253Z,68.90
2018-12-08T19:35:57.027Z,68.30
2018-12-08T19:38:25.407Z,62.40
2018-12-08T19:40:53.791Z,63.00
2018-12-08T19:43:24.232Z,63.10
2018-12-08T19:45:52.645Z,55.70
2018-12-08T19:48:21.420Z,55.10
2018-12-08T19:50:49.886Z,52.70
2018-12-08T19:53:18.339Z,52.10
2018-12-08T19:55:46.780Z,52.30
2018-12-08T19:58:15.221Z,51.80
2018-12-08T20:00:43.849Z,52.90
2018-12-08T20:03:14.194Z,54.30
2018-12-08T20:05:42.697Z,56.90
2018-12-08T20:08:11.100Z,54.10
2018-12-08T20:10:39.575Z,52.60
2018-12-08T20:13:08.107Z,52.90
2018-12-08T20:15:36.498Z,52.00
2018-12-08T20:18:05.000Z,56.00
2018-12-08T20:20:33.411Z,55.40
2018-12-08T20:23:01.894Z,53.60
2018-12-08T20:25:30.385Z,52.30
2018-12-08T20:27:59.029Z,52.40
2018-12-08T20:30:27.916Z,59.20
2018-12-08T20:32:56.765Z,65.70
2018-12-08T20:35:25.160Z,64.40
2018-12-08T20:37:53.747Z,61.70
2018-12-08T20:40:22.300Z,67.30
2018-12-08T20:42:50.811Z,61.90
2018-12-08T20:45:19.303Z,56.10
2018-12-08T20:47:47.742Z,55.40
2018-12-08T20:50:16.195Z,54.50
2018-12-08T20:52:44.649Z,53.00
2018-12-08T20:55:13.063Z,52.90
2018-12-08T20:57:41.489Z,53.80
2018-12-08T21:00:09.923Z,52.90
2018-12-08T21:02:38.673Z,60.40
2018-12-08T21:05:07.093Z,59.20
2018-12-08T21:07:35.854Z,57.70
2018-12-08T21:10:05.966Z,56.60
2018-12-08T21:12:35.343Z,59.70
2018-12-08T21:15:04.936Z,59.10
2018-12-08T21:17:33.383Z,54.30
2018-12-08T21:20:01.825Z,54.30
2018-12-08T21:22:30.274Z,54.20
2018-12-08T21:24:58.895Z,53.80
2018-12-08T21:27:27.305Z,54.90
2018-12-08T21:29:55.758Z,54.90
2018-12-08T21:32:24.173Z,54.30
2018-12-08T21:34:52.606Z,53.80
2018-12-08T21:37:21.984Z,53.50
2018-12-08T21:39:50.557Z,54.10
2018-12-08T21:42:18.959Z,54.10
2018-12-08T21:44:47.317Z,54.10
2018-12-08T21:47:15.980Z,53.60
2018-12-08T21:49:44.415Z,58.80
2018-12-08T21:52:12.872Z,56.00
2018-12-08T21:54:41.260Z,53.80
2018-12-08T21:57:09.824Z,55.50
2018-12-08T21:59:38.254Z,57.30
2018-12-08T22:02:06.660Z,59.50
2018-12-08T22:04:35.200Z,60.40
2018-12-08T22:07:03.886Z,60.80
2018-12-08T22:09:32.465Z,60.30
2018-12-08T22:12:00.892Z,59.50
2018-12-08T22:14:29.459Z,59.10
2018-12-08T22:16:58.014Z,58.60
2018-12-08T22:19:26.414Z,58.50
2018-12-08T22:21:54.781Z,58.30
2018-12-08T22:24:23.194Z,57.40
2018-12-08T22:26:51.632Z,57.00
2018-12-08T22:29:20.081Z,57.60
2018-12-08T22:31:48.888Z,57.40
2018-12-08T22:34:17.672Z,57.00
2018-12-08T22:36:56.685Z,56.60
2018-12-08T22:39:26.950Z,56.40
2018-12-08T22:41:55.369Z,56.30
2018-12-08T22:44:23.822Z,55.70
2018-12-08T22:46:53.407Z,56.10
2018-12-08T22:49:21.807Z,56.30
2018-12-08T22:51:50.674Z,56.40
2018-12-08T22:54:19.189Z,56.00
2018-12-08T22:56:47.742Z,55.70
2018-12-08T22:59:16.487Z,55.50
2018-12-08T23:01:45.935Z,55.40
2018-12-08T23:04:14.407Z,55.80
2018-12-08T23:06:46.646Z,58.30
2018-12-08T23:09:15.028Z,57.90
2018-12-08T23:11:43.508Z,57.70
2018-12-08T23:14:11.898Z,58.60
2018-12-08T23:16:40.393Z,58.50
2018-12-08T23:19:08.827Z,59.40
2018-12-08T23:21:37.244Z,61.00
2018-12-08T23:24:05.747Z,60.80
2018-12-08T23:26:34.302Z,59.50
2018-12-08T23:29:03.316Z,59.70
2018-12-08T23:31:31.808Z,59.70
2018-12-08T23:34:00.580Z,60.00
2018-12-08T23:36:29.026Z,60.40
2018-12-08T23:38:57.423Z,60.40
2018-12-08T23:41:25.796Z,61.90
2018-12-08T23:43:54.509Z,61.50
2018-12-08T23:46:22.992Z,60.80
2018-12-08T23:48:51.589Z,60.10
2018-12-08T23:51:20.089Z,61.50
2018-12-08T23:53:48.747Z,61.30
2018-12-08T23:56:17.361Z,61.20
2018-12-08T23:58:46.111Z,60.80
